sensor_id;sensor_type;location;lat;lon;timestamp;temperature;humidity
73438;DHT22;66471;56.532;21.020;2024-02-15T07:05:59;3.30;99.90
73438;DHT22;66471;56.532;21.020;2024-02-15T07:08:26;3.10;99.90
73438;DHT22;66471;56.532;21.020;2024-02-15T07:10:53;3.20;99.90
73438;DHT22;66471;56.532;21.020;2024-02-15T07:13:20;3.40;99.90
73438;DHT22;66471;56.532;21.020;2024-02-15T07:15:47;3.50;99.90
73438;DHT22;66471;56.532;21.020;2024-02-15T07:18:17;3.30;99.90
73438;DHT22;66471;56.532;21.020;2024-02-15T07:20:49;3.30;99.90
73438;DHT22;66471;56.532;21.020;2024-02-15T07:23:17;3.50;99.90
73438;DHT22;66471;56.532;21.020;2024-02-15T07:25:45;3.50;99.90
73438;DHT22;66471;56.532;21.020;2024-02-15T07:28:15;3.50;99.90
73438;DHT22;66471;56.532;21.020;2024-02-15T07:30:42;3.40;99.90
73438;DHT22;66471;56.532;21.020;2024-02-15T07:33:10;3.40;99.90
73438;DHT22;66471;56.532;21.020;2024-02-15T07:35:38;3.60;99.90
73438;DHT22;66471;56.532;21.020;2024-02-15T07:38:05;3.60;99.90
73438;DHT22;66471;56.532;21.020;2024-02-15T07:40:33;3.60;99.90
73438;DHT22;66471;56.532;21.020;2024-02-15T07:43:00;3.60;99.90
73438;DHT22;66471;56.532;21.020;2024-02-15T07:45:27;3.50;99.90
73438;DHT22;66471;56.532;21.020;2024-02-15T07:47:55;3.50;99.90
73438;DHT22;66471;56.532;21.020;2024-02-15T07:50:22;3.80;99.90
73438;DHT22;66471;56.532;21.020;2024-02-15T07:52:50;3.60;99.90
73438;DHT22;66471;56.532;21.020;2024-02-15T07:55:18;3.60;99.90
73438;DHT22;66471;56.532;21.020;2024-02-15T07:57:45;3.80;99.90
73438;DHT22;66471;56.532;21.020;2024-02-15T08:00:15;3.70;99.90
73438;DHT22;66471;56.532;21.020;2024-02-15T08:02:43;3.70;99.90
73438;DHT22;66471;56.532;21.020;2024-02-15T08:05:12;3.70;99.90
73438;DHT22;66471;56.532;21.020;2024-02-15T08:07:44;3.60;99.90
73438;DHT22;66471;56.532;21.020;2024-02-15T08:10:12;3.80;99.90
73438;DHT22;66471;56.532;21.020;2024-02-15T08:12:46;3.80;99.90
73438;DHT22;66471;56.532;21.020;2024-02-15T08:15:13;3.80;99.90
73438;DHT22;66471;56.532;21.020;2024-02-15T08:17:45;3.80;99.90
73438;DHT22;66471;56.532;21.020;2024-02-15T08:20:14;3.90;99.90
73438;DHT22;66471;56.532;21.020;2024-02-15T08:22:42;3.70;99.90
73438;DHT22;66471;56.532;21.020;2024-02-15T08:25:12;3.80;99.90
73438;DHT22;66471;56.532;21.020;2024-02-15T08:27:44;3.90;99.90
73438;DHT22;66471;56.532;21.020;2024-02-15T08:30:13;4.00;99.90
73438;DHT22;66471;56.532;21.020;2024-02-15T08:32:41;4.00;99.90
73438;DHT22;66471;56.532;21.020;2024-02-15T08:35:10;3.80;99.90
73438;DHT22;66471;56.532;21.020;2024-02-15T08:37:39;3.90;99.90
73438;DHT22;66471;56.532;21.020;2024-02-15T08:40:09;3.90;99.90
73438;DHT22;66471;56.532;21.020;2024-02-15T08:42:42;4.00;99.90
73438;DHT22;66471;56.532;21.020;2024-02-15T08:45:11;3.90;99.90
73438;DHT22;66471;56.532;21.020;2024-02-15T08:47:40;3.90;99.90
73438;DHT22;66471;56.532;21.020;2024-02-15T08:50:09;3.90;99.90
73438;DHT22;66471;56.532;21.020;2024-02-15T08:52:38;4.10;99.90
73438;DHT22;66471;56.532;21.020;2024-02-15T08:55:06;4.10;99.90
73438;DHT22;66471;56.532;21.020;2024-02-15T08:57:34;4.00;99.90
73438;DHT22;66471;56.532;21.020;2024-02-15T09:00:03;4.20;99.90
73438;DHT22;66471;56.532;21.020;2024-02-15T09:02:45;4.20;99.90
73438;DHT22;66471;56.532;21.020;2024-02-15T09:05:13;4.10;99.90
73438;DHT22;66471;56.532;21.020;2024-02-15T09:07:46;4.20;99.90
73438;DHT22;66471;56.532;21.020;2024-02-15T09:10:18;4.20;99.90
73438;DHT22;66471;56.532;21.020;2024-02-15T09:12:46;4.20;99.90
73438;DHT22;66471;56.532;21.020;2024-02-15T09:15:18;4.30;99.90
73438;DHT22;66471;56.532;21.020;2024-02-15T09:17:47;4.30;99.90
73438;DHT22;66471;56.532;21.020;2024-02-15T09:20:15;4.30;99.90
73438;DHT22;66471;56.532;21.020;2024-02-15T09:22:51;4.40;99.90
73438;DHT22;66471;56.532;21.020;2024-02-15T09:25:21;4.40;99.90
73438;DHT22;66471;56.532;21.020;2024-02-15T09:27:52;4.20;99.90
73438;DHT22;66471;56.532;21.020;2024-02-15T09:30:22;4.20;99.90
73438;DHT22;66471;56.532;21.020;2024-02-15T09:32:54;4.30;99.90
73438;DHT22;66471;56.532;21.020;2024-02-15T09:35:22;4.20;99.90
73438;DHT22;66471;56.532;21.020;2024-02-15T09:37:49;4.30;99.90
73438;DHT22;66471;56.532;21.020;2024-02-15T09:40:18;4.30;99.90
73438;DHT22;66471;56.532;21.020;2024-02-15T09:42:47;4.40;99.90
73438;DHT22;66471;56.532;21.020;2024-02-15T09:45:15;4.00;99.90
73438;DHT22;66471;56.532;21.020;2024-02-15T09:47:44;4.30;99.90
73438;DHT22;66471;56.532;21.020;2024-02-15T09:50:14;4.10;99.90
73438;DHT22;66471;56.532;21.020;2024-02-15T09:52:51;4.20;99.90
73438;DHT22;66471;56.532;21.020;2024-02-15T09:55:20;4.20;99.90
73438;DHT22;66471;56.532;21.020;2024-02-15T09:57:50;4.20;99.90
73438;DHT22;66471;56.532;21.020;2024-02-15T10:00:18;4.20;99.90
73438;DHT22;66471;56.532;21.020;2024-02-15T10:02:50;4.10;99.90
73438;DHT22;66471;56.532;21.020;2024-02-15T10:05:18;4.00;99.90
73438;DHT22;66471;56.532;21.020;2024-02-15T10:07:46;4.10;99.90
73438;DHT22;66471;56.532;21.020;2024-02-15T10:10:20;4.20;99.90
73438;DHT22;66471;56.532;21.020;2024-02-15T10:12:53;4.20;99.90
73438;DHT22;66471;56.532;21.020;2024-02-15T10:15:36;4.10;99.90
73438;DHT22;66471;56.532;21.020;2024-02-15T10:18:08;4.30;99.90
73438;DHT22;66471;56.532;21.020;2024-02-15T10:20:38;4.10;99.90
73438;DHT22;66471;56.532;21.020;2024-02-15T10:23:11;4.10;99.90
73438;DHT22;66471;56.532;21.020;2024-02-15T10:25:40;4.30;99.90
73438;DHT22;66471;56.532;21.020;2024-02-15T10:28:09;4.30;99.90
73438;DHT22;66471;56.532;21.020;2024-02-15T10:30:38;4.10;99.90
73438;DHT22;66471;56.532;21.020;2024-02-15T10:33:06;4.20;99.90
73438;DHT22;66471;56.532;21.020;2024-02-15T10:35:36;4.10;99.90
73438;DHT22;66471;56.532;21.020;2024-02-15T10:38:13;4.10;99.90
73438;DHT22;66471;56.532;21.020;2024-02-15T10:40:46;4.30;99.90
73438;DHT22;66471;56.532;21.020;2024-02-15T10:43:15;4.00;99.90
73438;DHT22;66471;56.532;21.020;2024-02-15T10:45:44;4.00;99.90
73438;DHT22;66471;56.532;21.020;2024-02-15T10:48:12;3.90;99.90
73438;DHT22;66471;56.532;21.020;2024-02-15T10:50:45;3.90;99.90
73438;DHT22;66471;56.532;21.020;2024-02-15T10:53:30;4.00;99.90
73438;DHT22;66471;56.532;21.020;2024-02-15T10:56:26;4.10;99.90
73438;DHT22;66471;56.532;21.020;2024-02-15T10:59:03;4.10;99.90
73438;DHT22;66471;56.532;21.020;2024-02-15T11:01:36;4.00;99.90
73438;DHT22;66471;56.532;21.020;2024-02-15T11:04:12;4.00;99.90
73438;DHT22;66471;56.532;21.020;2024-02-15T11:06:43;3.90;99.90
73438;DHT22;66471;56.532;21.020;2024-02-15T11:09:12;4.00;99.90
73438;DHT22;66471;56.532;21.020;2024-02-15T11:11:41;4.00;99.90
73438;DHT22;66471;56.532;21.020;2024-02-15T11:14:28;4.10;99.90
73438;DHT22;66471;56.532;21.020;2024-02-15T11:16:56;4.00;99.90
73438;DHT22;66471;56.532;21.020;2024-02-15T11:19:43;4.10;99.90
73438;DHT22;66471;56.532;21.020;2024-02-15T11:22:14;4.00;99.90
73438;DHT22;66471;56.532;21.020;2024-02-15T11:24:49;4.00;99.90
73438;DHT22;66471;56.532;21.020;2024-02-15T11:27:28;4.10;99.90
73438;DHT22;66471;56.532;21.020;2024-02-15T11:29:57;4.00;99.90
73438;DHT22;66471;56.532;21.020;2024-02-15T11:32:44;4.10;99.90
73438;DHT22;66471;56.532;21.020;2024-02-15T11:35:21;3.90;99.90
73438;DHT22;66471;56.532;21.020;2024-02-15T11:40:23;4.00;99.90
73438;DHT22;66471;56.532;21.020;2024-02-15T11:42:52;4.00;99.90
73438;DHT22;66471;56.532;21.020;2024-02-15T11:45:24;4.20;99.90
73438;DHT22;66471;56.532;21.020;2024-02-15T11:47:53;4.00;99.90
73438;DHT22;66471;56.532;21.020;2024-02-15T11:50:21;3.90;99.90
73438;DHT22;66471;56.532;21.020;2024-02-15T11:52:51;4.00;99.90
73438;DHT22;66471;56.532;21.020;2024-02-15T11:55:22;4.10;99.90
73438;DHT22;66471;56.532;21.020;2024-02-15T11:58:00;4.20;99.90
73438;DHT22;66471;56.532;21.020;2024-02-15T12:00:32;4.20;99.90
73438;DHT22;66471;56.532;21.020;2024-02-15T12:03:18;4.30;99.90
73438;DHT22;66471;56.532;21.020;2024-02-15T12:06:07;4.20;99.90
73438;DHT22;66471;56.532;21.020;2024-02-15T12:08:53;4.30;99.90
73438;DHT22;66471;56.532;21.020;2024-02-15T12:11:40;4.30;99.90
73438;DHT22;66471;56.532;21.020;2024-02-15T12:14:26;4.30;99.90
73438;DHT22;66471;56.532;21.020;2024-02-15T12:17:13;4.40;99.90
73438;DHT22;66471;56.532;21.020;2024-02-15T12:20:03;4.40;99.90
73438;DHT22;66471;56.532;21.020;2024-02-15T12:22:44;4.30;99.90
73438;DHT22;66471;56.532;21.020;2024-02-15T12:25:15;4.20;99.90
73438;DHT22;66471;56.532;21.020;2024-02-15T12:27:44;4.30;99.90
73438;DHT22;66471;56.532;21.020;2024-02-15T12:30:15;4.30;99.90
73438;DHT22;66471;56.532;21.020;2024-02-15T12:32:43;4.20;99.90
73438;DHT22;66471;56.532;21.020;2024-02-15T12:35:20;4.30;99.90
73438;DHT22;66471;56.532;21.020;2024-02-15T12:38:03;4.20;99.90
73438;DHT22;66471;56.532;21.020;2024-02-15T12:40:33;4.20;99.90
73438;DHT22;66471;56.532;21.020;2024-02-15T12:43:01;4.10;99.90
73438;DHT22;66471;56.532;21.020;2024-02-15T12:45:28;4.20;99.90
73438;DHT22;66471;56.532;21.020;2024-02-15T12:47:57;4.40;99.90
73438;DHT22;66471;56.532;21.020;2024-02-15T12:50:29;4.30;99.90
73438;DHT22;66471;56.532;21.020;2024-02-15T12:52:57;4.20;99.90
73438;DHT22;66471;56.532;21.020;2024-02-15T12:55:36;4.20;99.90
73438;DHT22;66471;56.532;21.020;2024-02-15T12:58:07;4.20;99.90
73438;DHT22;66471;56.532;21.020;2024-02-15T13:00:37;4.30;99.90
73438;DHT22;66471;56.532;21.020;2024-02-15T13:03:08;4.30;99.90
73438;DHT22;66471;56.532;21.020;2024-02-15T13:05:38;4.30;99.90
73438;DHT22;66471;56.532;21.020;2024-02-15T13:08:06;4.20;99.90
73438;DHT22;66471;56.532;21.020;2024-02-15T13:10:37;4.10;99.90
73438;DHT22;66471;56.532;21.020;2024-02-15T13:13:07;4.20;99.90
73438;DHT22;66471;56.532;21.020;2024-02-15T13:15:37;4.20;99.90
